createdAt,value
2018-08-09T00:00:01.572Z,1007.66
2018-08-09T00:01:01.563Z,1007.65
2018-08-09T00:02:01.553Z,1007.65
2018-08-09T00:03:01.597Z,1007.58
2018-08-09T00:04:01.530Z,1007.63
2018-08-09T00:05:01.524Z,1007.6
2018-08-09T00:06:01.513Z,1007.57
2018-08-09T00:07:01.503Z,1007.58
2018-08-09T00:08:01.490Z,1007.58
2018-08-09T00:09:01.481Z,1007.55
2018-08-09T00:10:01.474Z,1007.54
2018-08-09T00:11:01.462Z,1007.53
2018-08-09T00:12:01.451Z,1007.52
2018-08-09T00:13:01.442Z,1007.51
2018-08-09T00:14:01.432Z,1007.52
2018-08-09T00:15:01.420Z,1007.51
2018-08-09T00:16:01.413Z,1007.52
2018-08-09T00:17:01.403Z,1007.52
2018-08-09T00:18:01.393Z,1007.56
2018-08-09T00:19:01.382Z,1007.54
2018-08-09T00:20:01.377Z,1007.5
2018-08-09T00:21:01.360Z,1007.49
2018-08-09T00:22:01.348Z,1007.49
2018-08-09T00:23:01.340Z,1007.48
2018-08-09T00:24:01.328Z,1007.44
2018-08-09T00:25:01.319Z,1007.44
2018-08-09T00:26:01.306Z,1007.46
2018-08-09T00:27:01.296Z,1007.48
2018-08-09T00:28:01.290Z,1007.47
2018-08-09T00:29:01.276Z,1007.46
2018-08-09T00:30:01.269Z,1007.5
2018-08-09T00:31:01.255Z,1007.49
2018-08-09T00:32:01.246Z,1007.51
2018-08-09T00:33:01.436Z,1007.55
2018-08-09T00:34:01.221Z,1007.56
2018-08-09T00:35:01.211Z,1007.53
2018-08-09T00:36:01.203Z,1007.56
2018-08-09T00:37:01.190Z,1007.58
2018-08-09T00:38:01.182Z,1007.55
2018-08-09T00:39:01.169Z,1007.54
2018-08-09T00:40:01.162Z,1007.54
2018-08-09T00:41:01.152Z,1007.51
2018-08-09T00:42:01.142Z,1007.51
2018-08-09T00:43:01.130Z,1007.53
2018-08-09T00:44:01.119Z,1007.47
2018-08-09T00:45:01.108Z,1007.46
2018-08-09T00:46:01.095Z,1007.46
2018-08-09T00:47:01.088Z,1007.48
2018-08-09T00:48:01.075Z,1007.48
2018-08-09T00:49:01.066Z,1007.53
2018-08-09T00:50:01.053Z,1007.5
2018-08-09T00:51:01.044Z,1007.51
2018-08-09T00:52:01.034Z,1007.47
2018-08-09T00:53:01.029Z,1007.49
2018-08-09T00:54:01.013Z,1007.48
2018-08-09T00:55:00.999Z,1007.45
2018-08-09T00:56:00.995Z,1007.45
2018-08-09T00:57:00.981Z,1007.43
2018-08-09T00:58:00.970Z,1007.44
2018-08-09T00:59:00.959Z,1007.46
2018-08-09T01:00:00.949Z,1007.44
2018-08-09T01:01:00.938Z,1007.45
2018-08-09T01:02:00.929Z,1007.44
2018-08-09T01:03:00.919Z,1007.41
2018-08-09T01:04:00.910Z,1007.43
2018-08-09T01:05:00.897Z,1007.38
2018-08-09T01:06:00.888Z,1007.4
2018-08-09T01:07:00.882Z,1007.41
2018-08-09T01:08:00.865Z,1007.43
2018-08-09T01:09:00.855Z,1007.43
2018-08-09T01:10:00.849Z,1007.42
2018-08-09T01:11:00.834Z,1007.43
2018-08-09T01:12:00.825Z,1007.47
2018-08-09T01:13:00.812Z,1007.47
2018-08-09T01:14:00.801Z,1007.47
2018-08-09T01:15:00.795Z,1007.48
2018-08-09T01:16:00.781Z,1007.48
2018-08-09T01:17:00.776Z,1007.5
2018-08-09T01:18:00.761Z,1007.49
2018-08-09T01:19:00.750Z,1007.49
2018-08-09T01:20:00.738Z,1007.47
2018-08-09T01:21:00.728Z,1007.48
2018-08-09T01:22:00.718Z,1007.45
2018-08-09T01:23:00.708Z,1007.48
2018-08-09T01:24:00.695Z,1007.45
2018-08-09T01:25:00.685Z,1007.46
2018-08-09T01:26:00.678Z,1007.42
2018-08-09T01:27:00.663Z,1007.4
2018-08-09T01:28:00.654Z,1007.37
2018-08-09T01:29:00.646Z,1007.34
2018-08-09T01:30:00.635Z,1007.34
2018-08-09T01:31:00.620Z,1007.3
2018-08-09T01:32:00.612Z,1007.36
2018-08-09T01:33:00.603Z,1007.29
2018-08-09T01:34:00.590Z,1007.28
2018-08-09T01:35:00.580Z,1007.22
2018-08-09T01:36:00.569Z,1007.19
2018-08-09T01:37:00.559Z,1007.16
2018-08-09T01:38:00.550Z,1007.16
2018-08-09T01:39:00.538Z,1007.16
2018-08-09T01:40:00.527Z,1007.13
2018-08-09T01:41:00.517Z,1007.11
2018-08-09T01:42:00.505Z,1007.06
2018-08-09T01:43:00.496Z,1007.05
2018-08-09T01:44:00.487Z,1007.05
2018-08-09T01:45:00.475Z,1007.1
2018-08-09T01:46:00.467Z,1007.07
2018-08-09T01:47:00.454Z,1007.06
2018-08-09T01:48:00.443Z,1007.03
2018-08-09T01:49:00.431Z,1007.03
2018-08-09T01:50:00.423Z,1006.99
2018-08-09T01:51:00.412Z,1007.03
2018-08-09T01:52:00.398Z,1007
2018-08-09T01:53:00.388Z,1007.06
2018-08-09T01:54:00.380Z,1007.04
2018-08-09T01:55:00.372Z,1007.07
2018-08-09T01:56:00.358Z,1007.07
2018-08-09T01:57:00.350Z,1007.06
2018-08-09T01:58:00.339Z,1007.11
2018-08-09T01:59:00.324Z,1007.09
2018-08-09T02:00:00.312Z,1007.14
2018-08-09T02:01:00.302Z,1007.15
2018-08-09T02:02:00.310Z,1007.18
2018-08-09T02:03:00.279Z,1007.16
2018-08-09T02:04:00.273Z,1007.22
2018-08-09T02:05:00.305Z,1007.16
2018-08-09T02:06:00.247Z,1007.21
2018-08-09T02:07:00.235Z,1007.21
2018-08-09T02:08:00.256Z,1007.23
2018-08-09T02:09:00.235Z,1007.21
2018-08-09T02:10:00.204Z,1007.19
2018-08-09T02:11:00.194Z,1007.19
2018-08-09T02:12:00.184Z,1007.16
2018-08-09T02:13:00.176Z,1007.13
2018-08-09T02:14:00.159Z,1007.1
2018-08-09T02:15:00.149Z,1007.07
2018-08-09T02:16:00.138Z,1007.08
2018-08-09T02:17:00.127Z,1007.04
2018-08-09T02:18:00.117Z,1007.01
2018-08-09T02:19:00.103Z,1006.99
2018-08-09T02:20:00.096Z,1006.99
2018-08-09T02:21:00.083Z,1006.96
2018-08-09T02:22:00.076Z,1006.98
2018-08-09T02:23:00.062Z,1006.97
2018-08-09T02:24:00.048Z,1007.03
2018-08-09T02:25:00.046Z,1007.02
2018-08-09T02:26:00.027Z,1007.01
2018-08-09T02:27:00.014Z,1007.01
2018-08-09T02:28:00.004Z,1006.95
2018-08-09T02:29:00.000Z,1006.97
2018-08-09T02:29:59.996Z,1006.97
2018-08-09T02:30:59.970Z,1006.97
2018-08-09T02:31:59.960Z,1006.96
2018-08-09T02:33:00.151Z,1006.98
2018-08-09T02:33:59.939Z,1006.92
2018-08-09T02:34:59.925Z,1006.91
2018-08-09T02:35:59.913Z,1006.91
2018-08-09T02:36:59.902Z,1006.87
2018-08-09T02:37:59.900Z,1006.83
2018-08-09T02:38:59.882Z,1006.81
2018-08-09T02:39:59.867Z,1006.75
2018-08-09T02:40:59.858Z,1006.78
2018-08-09T02:41:59.850Z,1006.78
2018-08-09T02:42:59.836Z,1006.86
2018-08-09T02:43:59.822Z,1006.84
2018-08-09T02:44:59.815Z,1006.85
2018-08-09T02:45:59.802Z,1006.79
2018-08-09T02:46:59.789Z,1006.78
2018-08-09T02:47:59.776Z,1006.74
2018-08-09T02:48:59.768Z,1006.78
2018-08-09T02:49:59.757Z,1006.74
2018-08-09T02:50:59.743Z,1006.78
2018-08-09T02:51:59.734Z,1006.71
2018-08-09T02:52:59.721Z,1006.68
2018-08-09T02:53:59.709Z,1006.71
2018-08-09T02:54:59.705Z,1006.69
2018-08-09T02:55:59.687Z,1006.68
2018-08-09T02:56:59.674Z,1006.72
2018-08-09T02:57:59.662Z,1006.68
2018-08-09T02:58:59.650Z,1006.7
2018-08-09T02:59:59.646Z,1006.64
2018-08-09T03:00:59.628Z,1006.62
2018-08-09T03:01:59.627Z,1006.64
2018-08-09T03:02:59.606Z,1006.64
2018-08-09T03:03:59.593Z,1006.69
2018-08-09T03:04:59.581Z,1006.72
2018-08-09T03:05:59.569Z,1006.74
2018-08-09T03:06:59.559Z,1006.76
2018-08-09T03:07:59.556Z,1006.78
2018-08-09T03:08:59.539Z,1006.82
2018-08-09T03:09:59.528Z,1006.78
2018-08-09T03:10:59.512Z,1006.81
2018-08-09T03:11:59.504Z,1006.76
2018-08-09T03:12:59.488Z,1006.75
2018-08-09T03:13:59.478Z,1006.78
2018-08-09T03:14:59.511Z,1006.79
2018-08-09T03:15:59.458Z,1006.79
2018-08-09T03:16:59.442Z,1006.87
2018-08-09T03:17:59.430Z,1006.84
2018-08-09T03:18:59.420Z,1006.82
2018-08-09T03:19:59.411Z,1006.83
2018-08-09T03:20:59.397Z,1006.82
2018-08-09T03:21:59.386Z,1006.81
2018-08-09T03:22:59.372Z,1006.76
2018-08-09T03:23:59.359Z,1006.79
2018-08-09T03:24:59.350Z,1006.77
2018-08-09T03:25:59.337Z,1006.74
2018-08-09T03:26:59.323Z,1006.7
2018-08-09T03:27:59.314Z,1006.69
2018-08-09T03:28:59.302Z,1006.71
2018-08-09T03:29:59.290Z,1006.68
2018-08-09T03:30:59.278Z,1006.7
2018-08-09T03:31:59.269Z,1006.71
2018-08-09T03:32:59.255Z,1006.66
2018-08-09T03:33:59.243Z,1006.63
2018-08-09T03:34:59.232Z,1006.62
2018-08-09T03:35:59.220Z,1006.66
2018-08-09T03:36:59.206Z,1006.6
2018-08-09T03:37:59.197Z,1006.62
2018-08-09T03:38:59.187Z,1006.61
2018-08-09T03:39:59.173Z,1006.57
2018-08-09T03:40:59.160Z,1006.54
2018-08-09T03:41:59.150Z,1006.56
2018-08-09T03:42:59.137Z,1006.52
2018-08-09T03:43:59.125Z,1006.46
2018-08-09T03:44:59.116Z,1006.41
2018-08-09T03:45:59.104Z,1006.39
2018-08-09T03:46:59.092Z,1006.39
2018-08-09T03:47:59.080Z,1006.42
2018-08-09T03:48:59.067Z,1006.42
2018-08-09T03:49:59.057Z,1006.43
2018-08-09T03:50:59.047Z,1006.49
2018-08-09T03:51:59.036Z,1006.49
2018-08-09T03:52:59.021Z,1006.53
2018-08-09T03:53:59.013Z,1006.57
2018-08-09T03:54:59.002Z,1006.63
2018-08-09T03:55:58.990Z,1006.63
2018-08-09T03:56:58.976Z,1006.69
2018-08-09T03:57:58.965Z,1006.65
2018-08-09T03:58:58.953Z,1006.66
2018-08-09T03:59:58.940Z,1006.69
2018-08-09T04:00:58.931Z,1006.71
2018-08-09T04:01:58.917Z,1006.73
2018-08-09T04:02:58.908Z,1006.71
2018-08-09T04:03:58.895Z,1006.68
2018-08-09T04:04:58.885Z,1006.7
2018-08-09T04:05:58.872Z,1006.68
2018-08-09T04:06:58.862Z,1006.64
2018-08-09T04:07:58.851Z,1006.63
2018-08-09T04:08:58.847Z,1006.6
2018-08-09T04:09:58.830Z,1006.58
2018-08-09T04:10:58.825Z,1006.58
2018-08-09T04:11:58.845Z,1006.6
2018-08-09T04:12:58.795Z,1006.56
2018-08-09T04:13:58.781Z,1006.58
2018-08-09T04:14:58.770Z,1006.61
2018-08-09T04:15:58.759Z,1006.62
2018-08-09T04:16:58.747Z,1006.63
2018-08-09T04:17:58.735Z,1006.64
2018-08-09T04:18:58.724Z,1006.61
2018-08-09T04:19:58.712Z,1006.57
2018-08-09T04:20:58.705Z,1006.55
2018-08-09T04:21:58.689Z,1006.56
2018-08-09T04:22:58.678Z,1006.52
2018-08-09T04:23:58.670Z,1006.54
2018-08-09T04:24:58.658Z,1006.59
2018-08-09T04:25:58.648Z,1006.65
2018-08-09T04:26:58.635Z,1006.62
2018-08-09T04:27:58.625Z,1006.65
2018-08-09T04:28:58.612Z,1006.69
2018-08-09T04:29:58.602Z,1006.67
2018-08-09T04:30:58.586Z,1006.68
2018-08-09T04:31:58.580Z,1006.74
2018-08-09T04:32:58.766Z,1006.72
2018-08-09T04:33:58.554Z,1006.74
2018-08-09T04:34:58.544Z,1006.73
2018-08-09T04:35:58.539Z,1006.76
2018-08-09T04:36:58.521Z,1006.76
2018-08-09T04:37:58.574Z,1006.67
2018-08-09T04:38:58.501Z,1006.69
2018-08-09T04:39:58.485Z,1006.68
2018-08-09T04:40:58.478Z,1006.7
2018-08-09T04:41:58.465Z,1006.76
2018-08-09T04:42:58.453Z,1006.78
2018-08-09T04:43:58.442Z,1006.8
2018-08-09T04:44:58.431Z,1006.83
2018-08-09T04:45:58.420Z,1006.84
2018-08-09T04:46:58.409Z,1006.86
2018-08-09T04:47:58.400Z,1006.89
2018-08-09T04:48:58.386Z,1006.87
2018-08-09T04:49:58.398Z,1006.87
2018-08-09T04:50:58.368Z,1006.86
2018-08-09T04:51:58.352Z,1006.78
2018-08-09T04:52:58.342Z,1006.75
2018-08-09T04:53:58.335Z,1006.76
2018-08-09T04:54:58.322Z,1006.77
2018-08-09T04:55:58.314Z,1006.77
2018-08-09T04:56:58.298Z,1006.77
2018-08-09T04:57:58.292Z,1006.84
2018-08-09T04:58:58.279Z,1006.82
2018-08-09T04:59:58.264Z,1006.82
2018-08-09T05:00:58.254Z,1006.81
2018-08-09T05:01:58.245Z,1006.78
2018-08-09T05:02:58.233Z,1006.75
2018-08-09T05:03:58.222Z,1006.69
2018-08-09T05:04:58.213Z,1006.73
2018-08-09T05:05:58.198Z,1006.72
2018-08-09T05:06:58.190Z,1006.7
2018-08-09T05:07:58.178Z,1006.67
2018-08-09T05:08:58.168Z,1006.67
2018-08-09T05:09:58.157Z,1006.62
2018-08-09T05:10:58.151Z,1006.61
2018-08-09T05:11:58.135Z,1006.56
2018-08-09T05:12:58.123Z,1006.55
2018-08-09T05:13:58.113Z,1006.53
2018-08-09T05:14:58.102Z,1006.54
2018-08-09T05:15:58.102Z,1006.55
2018-08-09T05:16:58.082Z,1006.53
2018-08-09T05:17:58.097Z,1006.54
2018-08-09T05:18:58.063Z,1006.56
2018-08-09T05:19:58.050Z,1006.57
2018-08-09T05:20:58.037Z,1006.55
2018-08-09T05:21:58.077Z,1006.55
2018-08-09T05:22:58.019Z,1006.54
2018-08-09T05:23:58.005Z,1006.5
2018-08-09T05:24:57.993Z,1006.47
2018-08-09T05:25:57.985Z,1006.45
2018-08-09T05:26:57.973Z,1006.44
2018-08-09T05:27:57.961Z,1006.42
2018-08-09T05:28:57.950Z,1006.34
2018-08-09T05:29:57.942Z,1006.35
2018-08-09T05:30:57.944Z,1006.34
2018-08-09T05:31:57.920Z,1006.33
2018-08-09T05:32:57.908Z,1006.36
2018-08-09T05:33:57.897Z,1006.4
2018-08-09T05:34:57.888Z,1006.46
2018-08-09T05:35:57.876Z,1006.51
2018-08-09T05:36:57.867Z,1006.53
2018-08-09T05:37:57.860Z,1006.48
2018-08-09T05:38:57.849Z,1006.51
2018-08-09T05:39:57.837Z,1006.49
2018-08-09T05:40:57.824Z,1006.46
2018-08-09T05:41:57.817Z,1006.46
2018-08-09T05:42:57.804Z,1006.46
2018-08-09T05:43:57.793Z,1006.42
2018-08-09T05:44:57.789Z,1006.42
2018-08-09T05:45:57.772Z,1006.39
2018-08-09T05:46:57.762Z,1006.34
2018-08-09T05:47:57.755Z,1006.32
2018-08-09T05:48:57.741Z,1006.28
2018-08-09T05:49:57.730Z,1006.23
2018-08-09T05:50:57.721Z,1006.29
2018-08-09T05:51:57.709Z,1006.25
2018-08-09T05:52:57.785Z,1006.24
2018-08-09T05:53:57.688Z,1006.25
2018-08-09T05:54:57.766Z,1006.27
2018-08-09T05:55:57.670Z,1006.26
2018-08-09T05:56:57.658Z,1006.23
2018-08-09T05:57:57.647Z,1006.25
2018-08-09T05:58:57.637Z,1006.21
2018-08-09T05:59:57.628Z,1006.16
2018-08-09T06:00:57.617Z,1006.15
2018-08-09T06:01:57.606Z,1006.17
2018-08-09T06:02:57.598Z,1006.18
2018-08-09T06:03:57.590Z,1006.17
2018-08-09T06:04:57.578Z,1006.18
2018-08-09T06:05:57.566Z,1006.16
2018-08-09T06:06:57.555Z,1006.17
2018-08-09T06:07:57.547Z,1006.14
2018-08-09T06:08:57.536Z,1006.16
2018-08-09T06:09:57.526Z,1006.14
2018-08-09T06:10:57.516Z,1006.17
2018-08-09T06:11:57.507Z,1006.24
2018-08-09T06:12:57.497Z,1006.22
2018-08-09T06:13:57.487Z,1006.18
2018-08-09T06:14:57.476Z,1006.18
2018-08-09T06:15:57.470Z,1006.18
2018-08-09T06:16:57.460Z,1006.16
2018-08-09T06:17:57.450Z,1006.15
2018-08-09T06:18:57.493Z,1006.08
2018-08-09T06:19:57.479Z,1006.06
2018-08-09T06:20:57.418Z,1006.02
2018-08-09T06:21:57.408Z,1005.98
2018-08-09T06:22:57.399Z,1005.97
2018-08-09T06:23:57.389Z,1005.97
2018-08-09T06:24:57.380Z,1005.97
2018-08-09T06:25:57.371Z,1005.97
2018-08-09T06:26:57.364Z,1005.98
2018-08-09T06:27:57.353Z,1005.98
2018-08-09T06:28:57.342Z,1005.98
2018-08-09T06:29:57.337Z,1006.01
2018-08-09T06:30:57.325Z,1006.05
2018-08-09T06:31:57.314Z,1006.1
2018-08-09T06:32:57.305Z,1006.14
2018-08-09T06:33:57.297Z,1006.19
2018-08-09T06:34:57.289Z,1006.15
2018-08-09T06:35:57.285Z,1006.15
2018-08-09T06:36:57.270Z,1006.13
2018-08-09T06:37:57.261Z,1006.12
2018-08-09T06:38:57.254Z,1006.09
2018-08-09T06:39:57.244Z,1006.06
2018-08-09T06:40:57.231Z,1006.02
2018-08-09T06:41:57.222Z,1005.93
2018-08-09T06:42:57.217Z,1005.93
2018-08-09T06:43:57.206Z,1005.94
2018-08-09T06:44:57.194Z,1005.93
2018-08-09T06:45:57.187Z,1005.97
2018-08-09T06:46:57.176Z,1005.97
2018-08-09T06:47:57.168Z,1005.97
2018-08-09T06:48:57.163Z,1005.97
2018-08-09T06:49:57.150Z,1005.95
2018-08-09T06:50:57.147Z,1005.99
2018-08-09T06:51:57.136Z,1005.93
2018-08-09T06:52:57.122Z,1005.92
2018-08-09T06:53:57.113Z,1005.87
2018-08-09T06:54:57.104Z,1005.83
2018-08-09T06:55:57.101Z,1005.87
2018-08-09T06:56:57.085Z,1005.89
2018-08-09T06:57:57.081Z,1005.95
2018-08-09T06:58:57.069Z,1005.99
2018-08-09T06:59:57.062Z,1006.04
2018-08-09T07:00:57.050Z,1006
2018-08-09T07:01:57.041Z,1006.05
2018-08-09T07:02:57.036Z,1006
2018-08-09T07:03:57.026Z,1005.99
2018-08-09T07:04:57.016Z,1005.98
2018-08-09T07:05:57.006Z,1005.97
2018-08-09T07:06:57.020Z,1005.97
2018-08-09T07:07:56.988Z,1005.94
2018-08-09T07:08:56.984Z,1005.92
2018-08-09T07:09:56.972Z,1005.88
2018-08-09T07:10:56.961Z,1005.9
2018-08-09T07:11:56.952Z,1005.89
2018-08-09T07:12:56.944Z,1005.91
2018-08-09T07:13:56.935Z,1005.96
2018-08-09T07:14:56.928Z,1005.91
2018-08-09T07:15:56.919Z,1005.88
2018-08-09T07:16:56.909Z,1005.87
2018-08-09T07:17:56.902Z,1005.81
2018-08-09T07:18:56.893Z,1005.81
2018-08-09T07:19:56.886Z,1005.81
2018-08-09T07:20:56.878Z,1005.8
2018-08-09T07:21:56.868Z,1005.74
2018-08-09T07:22:56.861Z,1005.7
2018-08-09T07:23:56.852Z,1005.67
2018-08-09T07:24:56.843Z,1005.69
2018-08-09T07:25:56.836Z,1005.68
2018-08-09T07:26:56.828Z,1005.64
2018-08-09T07:27:56.817Z,1005.56
2018-08-09T07:28:56.811Z,1005.6
2018-08-09T07:29:56.803Z,1005.59
2018-08-09T07:30:56.794Z,1005.62
2018-08-09T07:31:56.785Z,1005.61
2018-08-09T07:32:56.777Z,1005.63
2018-08-09T07:33:56.776Z,1005.6
2018-08-09T07:34:56.765Z,1005.66
2018-08-09T07:35:56.755Z,1005.69
2018-08-09T07:36:56.748Z,1005.74
2018-08-09T07:37:56.738Z,1005.78
2018-08-09T07:38:56.738Z,1005.84
2018-08-09T07:39:56.724Z,1005.83
2018-08-09T07:40:56.720Z,1005.83
2018-08-09T07:41:56.708Z,1005.82
2018-08-09T07:42:56.700Z,1005.88
2018-08-09T07:43:56.691Z,1005.85
2018-08-09T07:44:56.691Z,1005.88
2018-08-09T07:45:56.680Z,1005.88
2018-08-09T07:46:56.669Z,1005.89
2018-08-09T07:47:56.669Z,1005.9
2018-08-09T07:48:56.659Z,1005.94
2018-08-09T07:49:56.651Z,1005.91
2018-08-09T07:50:56.638Z,1005.89
2018-08-09T07:51:56.641Z,1005.9
2018-08-09T07:52:56.627Z,1005.89
2018-08-09T07:53:56.617Z,1005.85
2018-08-09T07:54:56.611Z,1005.83
2018-08-09T07:55:56.602Z,1005.83
2018-08-09T07:56:56.613Z,1005.79
2018-08-09T07:57:56.590Z,1005.73
2018-08-09T07:58:56.578Z,1005.6
2018-08-09T07:59:56.572Z,1005.52
2018-08-09T08:00:56.612Z,1005.47
2018-08-09T08:01:56.554Z,1005.47
2018-08-09T08:02:56.550Z,1005.49
2018-08-09T08:03:56.539Z,1005.47
2018-08-09T08:04:56.533Z,1005.49
2018-08-09T08:05:56.536Z,1005.56
2018-08-09T08:06:56.516Z,1005.57
2018-08-09T08:07:56.508Z,1005.58
2018-08-09T08:08:56.505Z,1005.6
2018-08-09T08:09:56.492Z,1005.63
2018-08-09T08:10:56.488Z,1005.63
2018-08-09T08:11:56.477Z,1005.59
2018-08-09T08:12:56.471Z,1005.49
2018-08-09T08:13:56.464Z,1005.44
2018-08-09T08:14:56.524Z,1005.42
2018-08-09T08:15:56.448Z,1005.4
2018-08-09T08:16:56.444Z,1005.37
2018-08-09T08:17:56.437Z,1005.32
2018-08-09T08:18:56.428Z,1005.36
2018-08-09T08:19:56.420Z,1005.28
2018-08-09T08:20:56.415Z,1005.22
2018-08-09T08:21:56.408Z,1005.23
2018-08-09T08:22:57.046Z,1005.22
2018-08-09T08:23:56.396Z,1005.21
2018-08-09T08:24:56.390Z,1005.11
2018-08-09T08:25:56.381Z,1005.06
2018-08-09T08:26:56.375Z,1005.15
2018-08-09T08:27:56.368Z,1005.18
2018-08-09T08:29:41.553Z,1005.11
2018-08-09T08:39:55.865Z,1004.95
2018-08-09T08:40:55.855Z,1004.95
2018-08-09T08:41:55.847Z,1004.95
2018-08-09T08:42:56.047Z,1005.01
2018-08-09T08:43:55.833Z,1005.04
2018-08-09T08:44:55.821Z,1005.05
2018-08-09T08:45:55.813Z,1005
2018-08-09T08:46:55.807Z,1005.02
2018-08-09T08:47:55.797Z,1005.02
2018-08-09T08:48:55.791Z,1004.99
2018-08-09T08:49:55.788Z,1005.01
2018-08-09T08:50:55.785Z,1004.98
2018-08-09T08:51:55.779Z,1004.92
2018-08-09T08:52:55.767Z,1004.9
2018-08-09T08:53:55.760Z,1004.88
2018-08-09T08:54:55.753Z,1004.8
2018-08-09T08:55:55.750Z,1004.8
2018-08-09T08:56:55.755Z,1004.73
2018-08-09T08:57:55.738Z,1004.75
2018-08-09T08:58:55.728Z,1004.68
2018-08-09T08:59:55.724Z,1004.65
2018-08-09T09:00:55.765Z,1004.62
2018-08-09T09:01:55.710Z,1004.57
2018-08-09T09:02:55.708Z,1004.53
2018-08-09T09:03:55.695Z,1004.48
2018-08-09T09:04:55.691Z,1004.43
2018-08-09T09:05:55.683Z,1004.42
2018-08-09T09:06:55.710Z,1004.34
2018-08-09T09:07:55.674Z,1004.35
2018-08-09T09:08:55.679Z,1004.32
2018-08-09T09:09:55.657Z,1004.24
2018-08-09T09:10:55.652Z,1004.2
2018-08-09T09:11:55.644Z,1004.14
2018-08-09T09:12:55.637Z,1004.16
2018-08-09T09:13:55.634Z,1004.16
2018-08-09T09:14:55.626Z,1004.15
2018-08-09T09:15:55.624Z,1004.14
2018-08-09T09:16:55.615Z,1004.15
2018-08-09T09:17:55.608Z,1004.09
2018-08-09T09:18:55.602Z,1004.14
2018-08-09T09:19:55.599Z,1004.13
2018-08-09T09:20:55.591Z,1004.21
2018-08-09T09:21:55.589Z,1004.29
2018-08-09T09:22:55.577Z,1004.35
2018-08-09T09:23:55.574Z,1004.36
2018-08-09T09:24:55.567Z,1004.43
2018-08-09T09:25:55.565Z,1004.46
2018-08-09T09:26:55.590Z,1004.36
2018-08-09T09:27:55.551Z,1004.35
2018-08-09T09:28:55.544Z,1004.34
2018-08-09T09:29:55.544Z,1004.29
2018-08-09T09:30:55.535Z,1004.31
2018-08-09T09:31:55.529Z,1004.32
2018-08-09T09:32:55.523Z,1004.31
2018-08-09T09:33:55.518Z,1004.28
2018-08-09T09:34:55.520Z,1004.27
2018-08-09T09:35:55.512Z,1004.25
2018-08-09T09:36:55.502Z,1004.23
2018-08-09T09:37:55.500Z,1004.17
2018-08-09T09:38:55.494Z,1004.16
2018-08-09T09:39:55.495Z,1004.13
2018-08-09T09:40:55.485Z,1004.1
2018-08-09T09:41:55.478Z,1004.09
2018-08-09T09:42:55.476Z,1004.03
2018-08-09T09:43:55.469Z,1004.05
2018-08-09T09:44:55.464Z,1004.08
2018-08-09T09:45:55.461Z,1004.04
2018-08-09T09:46:55.456Z,1004.1
2018-08-09T09:47:55.452Z,1004.1
2018-08-09T09:48:55.446Z,1004.04
2018-08-09T09:49:55.446Z,1003.99
2018-08-09T09:50:55.439Z,1003.96
2018-08-09T09:51:55.444Z,1003.95
2018-08-09T09:52:55.427Z,1003.92
2018-08-09T09:53:55.428Z,1003.88
2018-08-09T09:54:55.469Z,1003.84
2018-08-09T09:55:55.477Z,1003.88
2018-08-09T09:56:55.410Z,1003.89
2018-08-09T09:57:55.409Z,1003.82
2018-08-09T09:58:55.407Z,1003.8
2018-08-09T09:59:55.398Z,1003.73
2018-08-09T10:00:55.395Z,1003.75
2018-08-09T10:01:55.408Z,1003.68
2018-08-09T10:02:55.388Z,1003.66
2018-08-09T10:03:55.382Z,1003.6
2018-08-09T10:04:55.379Z,1003.56
2018-08-09T10:05:55.375Z,1003.58
2018-08-09T10:06:55.372Z,1003.54
2018-08-09T10:07:55.373Z,1003.53
2018-08-09T10:08:55.362Z,1003.46
2018-08-09T10:09:55.360Z,1003.42
2018-08-09T10:10:55.356Z,1003.42
2018-08-09T10:11:55.351Z,1003.34
2018-08-09T10:12:55.346Z,1003.31
2018-08-09T10:13:55.342Z,1003.22
2018-08-09T10:14:55.341Z,1003.19
2018-08-09T10:15:55.385Z,1003.22
2018-08-09T10:16:55.331Z,1003.2
2018-08-09T10:17:55.324Z,1003.15
2018-08-09T10:18:55.322Z,1003.19
2018-08-09T10:19:55.319Z,1003.18
2018-08-09T10:20:55.316Z,1003.16
2018-08-09T10:21:55.309Z,1003.12
2018-08-09T10:22:55.307Z,1003.07
2018-08-09T10:23:55.305Z,1003.01
2018-08-09T10:24:55.298Z,1002.94
2018-08-09T10:25:55.293Z,1002.94
2018-08-09T10:26:55.298Z,1002.85
2018-08-09T10:27:55.285Z,1002.84
2018-08-09T10:28:55.280Z,1002.83
2018-08-09T10:29:55.318Z,1002.78
2018-08-09T10:30:55.292Z,1002.75
2018-08-09T10:31:55.269Z,1002.74
2018-08-09T10:32:55.265Z,1002.71
2018-08-09T10:33:55.464Z,1002.75
2018-08-09T10:34:55.261Z,1002.78
2018-08-09T10:35:55.259Z,1002.76
2018-08-09T10:36:55.253Z,1002.7
2018-08-09T10:37:55.249Z,1002.71
2018-08-09T10:38:55.246Z,1002.67
2018-08-09T10:39:55.253Z,1002.66
2018-08-09T10:40:55.243Z,1002.67
2018-08-09T10:41:55.235Z,1002.62
2018-08-09T10:42:55.241Z,1002.6
2018-08-09T10:43:55.228Z,1002.66
2018-08-09T10:44:55.225Z,1002.7
2018-08-09T10:45:55.221Z,1002.61
2018-08-09T10:46:55.219Z,1002.81
2018-08-09T10:47:55.217Z,1002.73
2018-08-09T10:48:55.221Z,1002.72
2018-08-09T10:49:55.216Z,1002.75
2018-08-09T10:50:55.210Z,1002.68
2018-08-09T10:51:55.208Z,1002.69
2018-08-09T10:52:55.207Z,1002.62
2018-08-09T10:53:55.209Z,1002.63
2018-08-09T10:54:55.208Z,1002.57
2018-08-09T10:55:55.209Z,1002.61
2018-08-09T10:56:55.209Z,1002.58
2018-08-09T10:57:55.207Z,1002.56
2018-08-09T10:58:55.208Z,1002.53
2018-08-09T10:59:55.211Z,1002.64
2018-08-09T11:00:55.212Z,1002.63
2018-08-09T11:01:55.221Z,1002.61
2018-08-09T11:02:55.215Z,1002.52
2018-08-09T11:03:55.221Z,1002.47
2018-08-09T11:04:55.224Z,1002.38
2018-08-09T11:05:55.224Z,1002.4
2018-08-09T11:06:55.225Z,1002.45
2018-08-09T11:07:55.231Z,1002.41
2018-08-09T11:08:55.233Z,1002.4
2018-08-09T11:09:55.236Z,1002.37
2018-08-09T11:10:55.240Z,1002.25
2018-08-09T11:11:55.251Z,1002.21
2018-08-09T11:12:55.253Z,1002.18
2018-08-09T11:13:55.247Z,1002.16
2018-08-09T11:14:55.267Z,1002.17
2018-08-09T11:15:55.256Z,1002.08
2018-08-09T11:16:55.274Z,1002.09
2018-08-09T11:17:55.264Z,1002.14
2018-08-09T11:18:55.269Z,1002.19
2018-08-09T11:19:55.269Z,1002.11
2018-08-09T11:20:55.274Z,1002.04
2018-08-09T11:21:55.275Z,1002.02
2018-08-09T11:22:55.279Z,1001.99
2018-08-09T11:23:55.282Z,1001.96
2018-08-09T11:24:55.286Z,1001.92
2018-08-09T11:25:55.292Z,1001.83
2018-08-09T11:26:55.294Z,1001.85
2018-08-09T11:27:55.299Z,1001.81
2018-08-09T11:28:55.306Z,1001.73
2018-08-09T11:29:55.312Z,1001.75
2018-08-09T11:30:55.313Z,1001.75
2018-08-09T11:31:55.318Z,1001.73
2018-08-09T11:32:55.326Z,1001.67
2018-08-09T11:33:55.343Z,1001.66
2018-08-09T11:34:55.333Z,1001.66
2018-08-09T11:35:55.339Z,1001.55
2018-08-09T11:36:55.347Z,1001.53
2018-08-09T11:37:55.349Z,1001.54
2018-08-09T11:38:55.355Z,1001.49
2018-08-09T11:39:55.371Z,1001.45
2018-08-09T11:40:55.372Z,1001.43
2018-08-09T11:41:55.370Z,1001.44
2018-08-09T11:42:55.426Z,1001.39
2018-08-09T11:43:55.386Z,1001.42
2018-08-09T11:44:55.391Z,1001.36
2018-08-09T11:45:55.400Z,1001.41
2018-08-09T11:46:55.403Z,1001.38
2018-08-09T11:47:55.410Z,1001.23
2018-08-09T11:48:55.417Z,1001.27
2018-08-09T11:49:55.428Z,1001.22
2018-08-09T11:50:55.433Z,1001.2
2018-08-09T11:51:55.438Z,1001.24
2018-08-09T11:52:55.444Z,1001.13
2018-08-09T11:53:55.453Z,1001.04
2018-08-09T11:54:55.457Z,1001.04
2018-08-09T11:55:55.463Z,1001.02
2018-08-09T11:56:55.502Z,1001.03
2018-08-09T11:57:55.474Z,1000.97
2018-08-09T11:58:55.480Z,1000.94
2018-08-09T11:59:55.483Z,1000.97
2018-08-09T12:00:55.488Z,1000.92
2018-08-09T12:01:55.495Z,1000.9
2018-08-09T12:02:55.496Z,1000.91
2018-08-09T12:03:55.505Z,1000.93
2018-08-09T12:04:55.509Z,1000.8
2018-08-09T12:05:55.511Z,1000.73
2018-08-09T12:06:55.515Z,1000.66
2018-08-09T12:07:55.542Z,1000.56
2018-08-09T12:08:55.524Z,1000.49
2018-08-09T12:09:55.529Z,1000.48
2018-08-09T12:10:55.534Z,1000.44
2018-08-09T12:11:55.537Z,1000.44
2018-08-09T12:12:55.546Z,1000.39
2018-08-09T12:13:55.547Z,1000.43
2018-08-09T12:14:55.594Z,1000.41
2018-08-09T12:15:55.559Z,1000.31
2018-08-09T12:16:55.611Z,1000.26